Time;durP1;ratioP1;P1;durP2;ratioP2;P2;SDS_P1;SDS_P2;PMS_P1;PMS_P2;Temp;Humidity;BMP_temperature;BMP_pressure;BME280_temperature;BME280_humidity;BME280_pressure;Samples;Min_cycle;Max_cycle;Signal;HPM_P1;HPM_P2
2022/08/19 00:01:19;;;;;;;;;;;;;;;17.14;46.81;100285.00;5070191;28;997;-56
2022/08/19 00:03:44;;;;;;;;;;;;;;;17.15;46.85;100281.16;5070363;28;1902;-56
2022/08/19 00:06:10;;;;;;;;;;;;;;;17.10;46.90;100296.56;5073191;28;1017;-57
2022/08/19 00:08:35;;;;;;;;;;;;;;;17.07;46.95;100294.41;5061216;28;966;-57
2022/08/19 00:11:01;;;;;;;;;;;;;;;17.10;46.99;100296.56;5064804;28;917;-56
2022/08/19 00:13:28;;;;;;;;;;;;;;;17.02;47.17;100302.69;5072159;28;1150;-57
2022/08/19 00:15:54;;;;;;;;;;;;;;;17.15;46.91;100300.38;5078077;28;937;-56
2022/08/19 00:18:19;;;;;;;;;;;;;;;17.13;46.96;100305.34;5077023;28;1843;-56
2022/08/19 00:20:45;;;;;;;;;;;;;;;17.18;46.78;100310.78;5071719;28;1009;-57
2022/08/19 00:23:10;;;;;;;;;;;;;;;17.04;47.08;100300.50;5070678;28;1959;-57
2022/08/19 00:25:36;;;;;;;;;;;;;;;17.10;46.78;100301.25;5059098;28;978;-56
2022/08/19 00:28:02;;;;;;;;;;;;;;;17.07;47.04;100297.16;5054914;28;1067;-57
2022/08/19 00:30:27;;;;;;;;;;;;;;;17.04;46.95;100303.22;5073163;28;1163;-56
2022/08/19 00:32:54;;;;;;;;;;;;;;;17.15;46.81;100298.44;5064549;28;1017;-57
2022/08/19 00:35:20;;;;;;;;;;;;;;;17.15;46.88;100298.44;5063834;28;968;-57
2022/08/19 00:37:46;;;;;;;;;;;;;;;17.08;46.93;100293.31;5076050;28;1065;-56
2022/08/19 00:40:12;;;;;;;;;;;;;;;17.12;46.80;100298.22;5052381;28;1277;-57
2022/08/19 00:42:38;;;;;;;;;;;;;;;17.14;46.82;100296.81;5070824;28;1898;-57
2022/08/19 00:45:06;;;;;;;;;;;;;;;17.13;46.83;100299.88;5074706;28;1057;-57
2022/08/19 00:47:31;;;;;;;;;;;;;;;17.12;46.77;100293.53;5045147;28;914;-57
2022/08/19 00:49:57;;;;;;;;;;;;;;;17.06;46.87;100306.50;5071366;28;1989;-56
2022/08/19 00:52:24;;;;;;;;;;;;;;;17.09;47.04;100305.91;5076944;28;993;-56
2022/08/19 00:54:51;;;;;;;;;;;;;;;17.05;47.11;100306.78;5041148;28;1351;-56
2022/08/19 00:57:17;;;;;;;;;;;;;;;17.20;46.60;100305.84;5033045;28;1010;-57
2022/08/19 00:59:43;;;;;;;;;;;;;;;17.12;46.85;100298.22;5066706;28;843;-57
2022/08/19 01:02:08;;;;;;;;;;;;;;;17.08;46.83;100295.22;5071784;28;1910;-57
2022/08/19 01:04:34;;;;;;;;;;;;;;;17.03;47.03;100303.53;5072807;28;965;-57
2022/08/19 01:06:59;;;;;;;;;;;;;;;17.08;47.01;100303.47;5068242;28;1004;-57
2022/08/19 01:09:25;;;;;;;;;;;;;;;17.05;47.16;100299.34;5049721;28;1187;-57
2022/08/19 01:11:50;;;;;;;;;;;;;;;17.06;46.82;100295.50;5064934;28;949;-57
2022/08/19 01:14:16;;;;;;;;;;;;;;;17.07;47.01;100296.34;5057791;28;1131;-57
2022/08/19 01:16:42;;;;;;;;;;;;;;;17.06;47.04;100290.00;5062680;28;1013;-58
2022/08/19 01:19:09;;;;;;;;;;;;;;;17.01;47.31;100298.31;5046590;28;2523;-58
2022/08/19 01:21:40;;;;;;;;;;;;;;;17.04;46.87;100299.66;5052580;28;1080;-58
2022/08/19 01:24:06;;;;;;;;;;;;;;;17.05;47.01;100291.13;5062798;28;1995;-58
2022/08/19 01:26:31;;;;;;;;;;;;;;;17.00;46.96;100296.66;5054997;28;989;-58
2022/08/19 01:28:57;;;;;;;;;;;;;;;17.02;46.91;100297.19;5052265;28;1235;-58
2022/08/19 01:31:24;;;;;;;;;;;;;;;17.11;46.86;100291.91;5073790;28;989;-55
2022/08/19 01:33:49;;;;;;;;;;;;;;;17.12;46.62;100299.03;5054633;28;1227;-57
2022/08/19 01:36:16;;;;;;;;;;;;;;;17.13;46.93;100292.44;5069338;28;998;-57
2022/08/19 01:38:42;;;;;;;;;;;;;;;17.12;46.77;100295.47;5074457;28;1186;-57
2022/08/19 01:41:08;;;;;;;;;;;;;;;17.05;46.83;100293.88;5065990;28;954;-57
2022/08/19 01:43:34;;;;;;;;;;;;;;;17.08;46.79;100289.72;5070608;28;1914;-57
2022/08/19 01:46:00;;;;;;;;;;;;;;;17.01;46.88;100290.09;5073200;28;1097;-57
2022/08/19 01:48:26;;;;;;;;;;;;;;;18.18;48.16;100291.00;5062071;28;1800;-57
2022/08/19 01:50:51;;;;;;;;;;;;;;;15.04;55.67;100299.44;5064493;28;962;-58
2022/08/19 01:53:17;;;;;;;;;;;;;;;16.65;49.94;100294.97;5065154;28;1028;-58
2022/08/19 01:55:42;;;;;;;;;;;;;;;16.84;48.78;100286.88;5070874;28;1104;-58
2022/08/19 01:58:16;;;;;;;;;;;;;;;16.90;48.10;100274.78;5056130;28;1218;-58
2022/08/19 02:00:42;;;;;;;;;;;;;;;16.98;47.69;100279.66;5048811;28;1107;-58
2022/08/19 02:03:09;;;;;;;;;;;;;;;17.92;48.79;100277.56;5069932;28;1914;-58
2022/08/19 02:05:34;;;;;;;;;;;;;;;17.24;49.63;100285.72;5073940;28;1096;-59
2022/08/19 02:07:59;;;;;;;;;;;;;;;17.21;48.74;100285.50;5073583;28;1056;-58
2022/08/19 02:10:25;;;;;;;;;;;;;;;17.17;48.33;100281.69;5062798;28;1053;-59
2022/08/19 02:12:50;;;;;;;;;;;;;;;17.12;48.18;100285.28;5069302;28;1021;-58
2022/08/19 02:15:18;;;;;;;;;;;;;;;17.18;47.63;100281.41;5057478;28;973;-59
2022/08/19 02:17:44;;;;;;;;;;;;;;;17.14;47.52;100282.25;5069195;28;962;-59
2022/08/19 02:20:10;;;;;;;;;;;;;;;17.08;47.44;100282.31;5067508;28;977;-58
2022/08/19 02:22:35;;;;;;;;;;;;;;;17.05;47.33;100273.81;5069822;28;1910;-58
2022/08/19 02:25:00;;;;;;;;;;;;;;;17.09;47.09;100261.16;5068259;28;1060;-58
2022/08/19 02:27:26;;;;;;;;;;;;;;;17.03;47.17;100260.38;5069805;28;1044;-58
2022/08/19 02:29:51;;;;;;;;;;;;;;;17.04;47.25;100270.28;5073393;28;993;-59
2022/08/19 02:32:19;;;;;;;;;;;;;;;17.02;47.11;100272.47;5071973;28;1152;-59
2022/08/19 02:34:44;;;;;;;;;;;;;;;17.09;46.86;100267.44;5071252;28;1008;-58
2022/08/19 02:38:24;;;;;;;;;;;;;;;17.12;46.68;100270.75;5072036;28;1116;-58
2022/08/19 02:39:55;;;;;;;;;;;;;;;17.05;47.00;100263.66;5068639;28;1339;-58
2022/08/19 02:42:21;;;;;;;;;;;;;;;17.04;46.88;100263.94;5065557;28;1905;-58
2022/08/19 02:44:46;;;;;;;;;;;;;;;17.05;46.94;100269.13;5074501;28;1215;-58
2022/08/19 02:47:14;;;;;;;;;;;;;;;17.06;46.91;100269.97;5070424;28;1005;-58
2022/08/19 02:49:39;;;;;;;;;;;;;;;17.03;46.98;100273.31;5069091;28;1426;-58
2022/08/19 02:52:05;;;;;;;;;;;;;;;17.05;46.91;100269.13;5067269;28;1032;-58
2022/08/19 02:54:30;;;;;;;;;;;;;;;17.10;46.79;100269.09;5067732;28;1017;-58
2022/08/19 02:56:55;;;;;;;;;;;;;;;17.06;47.07;100270.78;5067697;28;1092;-58
2022/08/19 02:59:21;;;;;;;;;;;;;;;17.01;47.06;100270.84;5068660;28;1025;-59
2022/08/19 03:01:46;;;;;;;;;;;;;;;17.05;46.87;100271.06;5068257;28;1120;-58
2022/08/19 03:04:12;;;;;;;;;;;;;;;16.97;47.12;100269.78;5072594;28;1910;-59
2022/08/19 03:06:38;;;;;;;;;;;;;;;17.04;47.01;100273.00;5059651;28;1223;-59
2022/08/19 03:09:04;;;;;;;;;;;;;;;16.95;47.01;100282.16;5074016;28;985;-58
2022/08/19 03:11:30;;;;;;;;;;;;;;;16.96;46.73;100279.13;5067411;28;1111;-59
2022/08/19 03:13:55;;;;;;;;;;;;;;;16.92;47.17;100286.31;5075124;28;1009;-58
2022/08/19 03:16:22;;;;;;;;;;;;;;;17.02;46.81;100294.44;5050959;28;962;-58
2022/08/19 03:18:47;;;;;;;;;;;;;;;16.95;46.95;100296.72;5064121;28;1143;-56
2022/08/19 03:21:16;;;;;;;;;;;;;;;17.04;46.77;100302.41;5070117;28;993;-57
2022/08/19 03:23:42;;;;;;;;;;;;;;;17.07;46.65;100296.34;5062087;28;1905;-56
2022/08/19 03:26:07;;;;;;;;;;;;;;;16.98;46.95;100296.13;5072270;28;1045;-61
2022/08/19 03:28:33;;;;;;;;;;;;;;;16.99;46.73;100302.47;5069988;28;1075;-57
2022/08/19 03:31:09;;;;;;;;;;;;;;;18.24;47.57;100300.81;5062080;28;1006;-57
2022/08/19 03:33:35;;;;;;;;;;;;;;;17.55;48.56;100306.59;5072130;28;1195;-57
2022/08/19 03:36:01;;;;;;;;;;;;;;;17.39;48.08;100300.41;5067972;28;958;-59
2022/08/19 03:38:27;;;;;;;;;;;;;;;17.28;47.99;100310.72;5068826;28;1162;-57
2022/08/19 03:40:53;;;;;;;;;;;;;;;17.21;47.66;100307.47;5066036;28;921;-57
2022/08/19 03:43:18;;;;;;;;;;;;;;;17.23;47.40;100310.75;5072897;28;1913;-57
2022/08/19 03:45:44;;;;;;;;;;;;;;;17.20;47.39;100314.88;5077220;28;1009;-57
2022/08/19 03:48:09;;;;;;;;;;;;;;;17.10;47.40;100318.53;5077337;28;1210;-58
2022/08/19 03:50:38;;;;;;;;;;;;;;;17.44;49.01;100312.19;5064968;28;1373;-59
2022/08/19 03:53:04;;;;;;;;;;;;;;;17.49;50.30;100324.22;5059230;28;970;-57
2022/08/19 03:55:30;;;;;;;;;;;;;;;17.53;50.75;100322.53;5058922;28;1218;-58
2022/08/19 03:57:56;;;;;;;;;;;;;;;17.51;51.19;100320.09;5063049;28;3168;-57
2022/08/19 04:00:21;;;;;;;;;;;;;;;17.48;51.92;100328.09;5068550;28;2075;-56
2022/08/19 04:02:47;;;;;;;;;;;;;;;15.11;59.11;100326.53;5067302;28;1970;-57
2022/08/19 04:05:13;;;;;;;;;;;;;;;16.84;53.21;100325.34;5062996;28;1979;-56
2022/08/19 04:07:39;;;;;;;;;;;;;;;17.13;53.16;100327.34;5070656;28;2205;-61
2022/08/19 04:10:04;;;;;;;;;;;;;;;17.36;53.15;100343.06;5067246;28;1971;-56
2022/08/19 04:12:30;;;;;;;;;;;;;;;17.46;52.97;100342.16;5071894;28;1745;-56
2022/08/19 04:14:55;;;;;;;;;;;;;;;17.47;53.04;100345.69;5066388;28;2122;-56
2022/08/19 04:17:22;;;;;;;;;;;;;;;17.57;52.83;100348.34;5068193;28;969;-55
2022/08/19 04:19:47;;;;;;;;;;;;;;;17.66;52.11;100346.59;5072100;28;992;-60
2022/08/19 04:22:13;;;;;;;;;;;;;;;17.69;52.24;100346.00;5068951;28;1906;-56
2022/08/19 04:24:38;;;;;;;;;;;;;;;14.71;60.91;100350.88;5069533;28;917;-57
2022/08/19 04:27:05;;;;;;;;;;;;;;;16.84;53.50;100347.31;5062619;28;1140;-57
2022/08/19 04:29:30;;;;;;;;;;;;;;;17.23;51.43;100343.72;5076346;28;1014;-61
2022/08/19 04:31:59;;;;;;;;;;;;;;;17.20;50.07;100349.81;5068490;28;1210;-59
2022/08/19 04:34:25;;;;;;;;;;;;;;;17.17;49.48;100336.66;5066283;28;985;-60
2022/08/19 04:36:51;;;;;;;;;;;;;;;17.24;48.99;100350.88;5058835;28;1124;-61
2022/08/19 04:39:17;;;;;;;;;;;;;;;17.18;48.57;100341.00;5075600;28;981;-57
2022/08/19 04:44:30;;;;;;;;;;;;;;;17.22;48.05;100353.06;5068918;28;1789;-60
2022/08/19 04:46:55;;;;;;;;;;;;;;;17.22;47.96;100359.41;5060296;28;1141;-62
2022/08/19 04:49:24;;;;;;;;;;;;;;;17.22;47.60;100362.16;5068275;28;871;-59
2022/08/19 04:51:50;;;;;;;;;;;;;;;17.22;47.63;100362.16;5070952;28;1028;-59
2022/08/19 04:54:16;;;;;;;;;;;;;;;17.23;47.46;100354.72;5071009;28;1259;-57
2022/08/19 04:56:41;;;;;;;;;;;;;;;17.23;47.56;100354.72;5061531;28;993;-57
2022/08/19 04:59:08;;;;;;;;;;;;;;;17.22;47.60;100353.06;5048344;28;1052;-56
2022/08/19 05:01:34;;;;;;;;;;;;;;;17.21;47.54;100362.44;5062609;28;1018;-58
2022/08/19 05:04:00;;;;;;;;;;;;;;;17.27;47.45;100362.09;5075263;28;1906;-58
2022/08/19 05:06:28;;;;;;;;;;;;;;;17.24;47.17;100357.16;5073319;28;1214;-57
2022/08/19 05:08:54;;;;;;;;;;;;;;;17.28;47.10;100362.91;5064751;28;1326;-59
2022/08/19 05:11:21;;;;;;;;;;;;;;;17.16;47.43;100362.47;5063754;28;1013;-62
2022/08/19 05:13:47;;;;;;;;;;;;;;;17.20;47.52;100360.78;5045131;28;1987;-59
2022/08/19 05:16:13;;;;;;;;;;;;;;;17.13;47.69;100363.06;5061905;28;1574;-58
2022/08/19 05:24:09;;;;;;;;;;;;;;;17.37;49.73;100358.41;5064203;28;1988;-58
2022/08/19 05:26:35;;;;;;;;;;;;;;;17.49;50.29;100359.97;5068867;28;1237;-60
2022/08/19 05:29:00;;;;;;;;;;;;;;;17.53;50.52;100348.13;5066728;28;2799;-61
2022/08/19 05:31:26;;;;;;;;;;;;;;;17.44;49.88;100355.34;5076838;28;1112;-56
2022/08/19 05:33:51;;;;;;;;;;;;;;;17.51;49.30;100346.75;5072680;28;1112;-57
2022/08/19 05:36:18;;;;;;;;;;;;;;;17.45;48.59;100344.06;5063448;28;1064;-56
2022/08/19 05:38:44;;;;;;;;;;;;;;;17.49;48.44;100346.22;5069158;28;1087;-55
2022/08/19 05:41:09;;;;;;;;;;;;;;;17.47;48.31;100353.94;5073548;28;1009;-58
2022/08/19 05:43:35;;;;;;;;;;;;;;;17.43;48.03;100353.69;5063237;28;1984;-59
2022/08/19 05:46:01;;;;;;;;;;;;;;;18.38;47.58;100340.25;5076676;28;973;-57
2022/08/19 05:48:26;;;;;;;;;;;;;;;18.63;47.50;100343.75;5073827;28;1040;-59
2022/08/19 05:50:52;;;;;;;;;;;;;;;18.34;48.85;100343.91;5069641;28;1088;-58
2022/08/19 05:53:18;;;;;;;;;;;;;;;18.27;49.51;100336.00;5063563;28;962;-59
2022/08/19 05:55:43;;;;;;;;;;;;;;;18.21;50.09;100345.44;5071310;28;1053;-56
2022/08/19 05:58:08;;;;;;;;;;;;;;;18.13;50.88;100339.50;5070040;28;1210;-56
2022/08/19 06:00:35;;;;;;;;;;;;;;;18.16;50.90;100338.09;5073740;28;1160;-57
2022/08/19 06:03:03;;;;;;;;;;;;;;;18.11;51.38;100338.94;5059406;28;1976;-61
2022/08/19 06:05:31;;;;;;;;;;;;;;;18.03;51.82;100347.84;5067354;28;1096;-58
2022/08/19 06:07:56;;;;;;;;;;;;;;;17.99;52.43;100341.28;5076735;28;981;-57
2022/08/19 06:10:22;;;;;;;;;;;;;;;17.99;52.75;100346.78;5074988;28;1179;-55
2022/08/19 06:12:48;;;;;;;;;;;;;;;17.93;52.90;100337.78;5059490;28;1021;-56
2022/08/19 06:15:13;;;;;;;;;;;;;;;17.88;53.31;100331.50;5073259;28;1061;-58
2022/08/19 06:17:39;;;;;;;;;;;;;;;17.92;53.29;100343.59;5075888;28;1048;-58
2022/08/19 06:20:05;;;;;;;;;;;;;;;17.88;53.62;100332.34;5076330;28;993;-57
2022/08/19 06:22:30;;;;;;;;;;;;;;;17.86;54.00;100333.75;5071302;28;1906;-61
2022/08/19 06:24:56;;;;;;;;;;;;;;;17.86;53.85;100334.53;5070973;28;854;-57
2022/08/19 06:27:21;;;;;;;;;;;;;;;17.86;54.17;100333.75;5070393;28;1005;-59
2022/08/19 06:29:47;;;;;;;;;;;;;;;17.84;54.21;100335.94;5073100;28;989;-58
2022/08/19 06:32:14;;;;;;;;;;;;;;;17.79;54.59;100329.41;5064943;28;1202;-58
2022/08/19 06:34:41;;;;;;;;;;;;;;;17.81;54.65;100326.38;5064666;28;1226;-56
2022/08/19 06:37:06;;;;;;;;;;;;;;;17.76;54.78;100329.19;5061209;28;1215;-57
2022/08/19 06:39:33;;;;;;;;;;;;;;;17.77;54.99;100326.13;5059865;28;1290;-59
2022/08/19 06:42:01;;;;;;;;;;;;;;;17.75;54.80;100328.38;5063666;28;1910;-56
2022/08/19 06:44:29;;;;;;;;;;;;;;;17.75;55.02;100333.88;5059242;28;1275;-57
2022/08/19 06:46:54;;;;;;;;;;;;;;;17.71;55.19;100327.31;5064680;28;1219;-58
2022/08/19 06:49:20;;;;;;;;;;;;;;;17.71;55.19;100326.47;5065617;28;1226;-58
2022/08/19 06:51:49;;;;;;;;;;;;;;;17.73;55.22;100327.81;5065933;28;1285;-57
2022/08/19 06:54:15;;;;;;;;;;;;;;;17.74;55.22;100326.72;5043860;28;1220;-56
2022/08/19 06:56:40;;;;;;;;;;;;;;;17.70;55.43;100331.16;5061618;28;1222;-58
2022/08/19 06:59:07;;;;;;;;;;;;;;;17.66;55.60;100330.09;5062409;28;1392;-57
2022/08/19 07:01:37;;;;;;;;;;;;;;;17.72;55.41;100334.44;5063914;28;1285;-57
2022/08/19 07:04:03;;;;;;;;;;;;;;;17.73;55.42;100332.50;5056956;28;1918;-57
2022/08/19 07:06:30;;;;;;;;;;;;;;;17.62;55.47;100329.06;5073577;28;1159;-57
2022/08/19 07:08:57;;;;;;;;;;;;;;;17.64;55.70;100326.81;5066686;28;1407;-59
2022/08/19 07:11:23;;;;;;;;;;;;;;;17.64;55.58;100329.56;5048957;28;1144;-63
2022/08/19 07:13:48;;;;;;;;;;;;;;;17.67;55.67;100319.91;5059193;28;1278;-62
2022/08/19 07:16:15;;;;;;;;;;;;;;;17.67;55.83;100323.50;5069592;28;1305;-63
2022/08/19 07:18:41;;;;;;;;;;;;;;;17.71;56.17;100321.81;5068399;28;1119;-58
2022/08/19 07:21:08;;;;;;;;;;;;;;;17.67;56.03;100315.25;5076458;28;1191;-57
2022/08/19 07:23:33;;;;;;;;;;;;;;;17.65;55.99;100306.47;5074417;28;1992;-59
2022/08/19 07:26:05;;;;;;;;;;;;;;;17.62;56.07;100309.81;5073687;28;1194;-59
2022/08/19 07:28:31;;;;;;;;;;;;;;;17.66;55.93;100315.56;5067422;28;1024;-60
2022/08/19 07:30:56;;;;;;;;;;;;;;;17.61;56.28;100321.91;5078673;28;1151;-56
2022/08/19 07:33:21;;;;;;;;;;;;;;;17.61;56.30;100310.91;5078923;28;1024;-60
2022/08/19 07:35:47;;;;;;;;;;;;;;;17.83;56.97;100313.13;5072455;28;993;-59
2022/08/19 07:38:13;;;;;;;;;;;;;;;17.86;57.46;100328.22;5070564;28;996;-56
2022/08/19 07:40:39;;;;;;;;;;;;;;;17.79;57.23;100329.41;5050866;28;1191;-60
2022/08/19 07:43:05;;;;;;;;;;;;;;;17.76;57.32;100324.47;5070827;28;1918;-59
2022/08/19 07:45:32;;;;;;;;;;;;;;;17.79;57.08;100331.34;5059882;28;957;-58
2022/08/19 07:47:58;;;;;;;;;;;;;;;17.74;57.11;100325.88;5077108;28;914;-58
2022/08/19 07:50:23;;;;;;;;;;;;;;;17.73;56.96;100336.06;5076255;28;866;-58
2022/08/19 07:52:49;;;;;;;;;;;;;;;17.78;56.64;100316.78;5077916;28;1000;-59
2022/08/19 07:55:15;;;;;;;;;;;;;;;17.74;56.69;100315.72;5059779;28;1151;-56
2022/08/19 07:57:41;;;;;;;;;;;;;;;17.76;56.90;100313.47;5072822;28;1189;-60
2022/08/19 08:00:06;;;;;;;;;;;;;;;17.75;56.95;100314.63;5061706;28;982;-60
2022/08/19 08:02:38;;;;;;;;;;;;;;;17.75;57.61;100322.88;5075799;28;1967;-60
2022/08/19 08:10:32;;;;;;;;;;;;;;;18.00;59.13;100303.63;5066889;28;989;-61
2022/08/19 08:12:58;;;;;;;;;;;;;;;18.02;59.84;100299.47;5063497;28;1289;-59
2022/08/19 08:15:23;;;;;;;;;;;;;;;18.06;59.29;100310.69;5067386;28;1037;-59
2022/08/19 08:17:49;;;;;;;;;;;;;;;18.07;59.42;100307.63;5078296;28;1120;-59
2022/08/19 08:20:14;;;;;;;;;;;;;;;18.21;59.62;100307.72;5077832;28;1095;-58
2022/08/19 08:25:30;;;;;;;;;;;;;;;18.19;59.61;100293.47;5062668;28;1005;-59
2022/08/19 08:27:56;;;;;;;;;;;;;;;18.22;59.80;100298.38;5072568;28;1037;-61
2022/08/19 08:30:22;;;;;;;;;;;;;;;18.26;59.85;100304.09;5073788;28;1040;-58
2022/08/19 08:32:48;;;;;;;;;;;;;;;18.13;59.60;100295.47;5077722;28;997;-58
2022/08/19 08:35:14;;;;;;;;;;;;;;;18.04;59.29;100286.22;5074608;28;1159;-57
2022/08/19 08:37:40;;;;;;;;;;;;;;;18.10;59.62;100287.81;5073717;28;1020;-58
2022/08/19 08:40:07;;;;;;;;;;;;;;;18.07;60.48;100296.63;5059015;28;1207;-58
2022/08/19 08:42:34;;;;;;;;;;;;;;;18.17;60.14;100281.09;5058437;28;1905;-58
2022/08/19 08:45:06;;;;;;;;;;;;;;;18.22;60.33;100281.03;5070164;28;974;-58
2022/08/19 08:47:35;;;;;;;;;;;;;;;18.21;60.16;100280.22;5065073;28;1016;-59
2022/08/19 08:50:03;;;;;;;;;;;;;;;18.16;60.29;100283.06;5049194;28;849;-59
2022/08/19 08:52:30;;;;;;;;;;;;;;;18.16;59.72;100283.06;5054648;28;1061;-59
2022/08/19 08:54:57;;;;;;;;;;;;;;;18.15;59.16;100275.09;5073288;28;1190;-57
2022/08/19 08:57:31;;;;;;;;;;;;;;;18.09;59.00;100277.91;5056120;28;1064;-55
2022/08/19 08:59:56;;;;;;;;;;;;;;;18.13;58.90;100283.63;5047058;28;1234;-55
2022/08/19 09:02:22;;;;;;;;;;;;;;;18.12;58.91;100282.81;5060715;28;1901;-55
2022/08/19 09:04:47;;;;;;;;;;;;;;;18.12;58.97;100282.00;5063385;28;1124;-54
2022/08/19 09:07:13;;;;;;;;;;;;;;;18.08;59.20;100276.25;5076111;28;1079;-55
2022/08/19 09:09:39;;;;;;;;;;;;;;;18.10;59.24;100284.22;5075856;28;1147;-55
2022/08/19 09:12:23;;;;;;;;;;;;;;;18.12;59.42;100282.00;5061782;28;1448;-55
2022/08/19 09:14:52;;;;;;;;;;;;;;;18.11;59.68;100281.16;5065105;28;1366;-55
2022/08/19 09:17:18;;;;;;;;;;;;;;;18.24;59.22;100284.31;5060587;28;993;-55
2022/08/19 09:19:50;;;;;;;;;;;;;;;18.29;59.07;100287.00;5041816;28;1013;-55
2022/08/19 09:22:15;;;;;;;;;;;;;;;18.29;59.01;100287.00;5060471;28;1972;-55
2022/08/19 09:24:41;;;;;;;;;;;;;;;18.35;59.17;100291.31;5069110;28;1123;-55
2022/08/19 09:27:06;;;;;;;;;;;;;;;18.34;59.28;100280.59;5067386;28;863;-56
2022/08/19 09:29:32;;;;;;;;;;;;;;;18.28;59.12;100290.84;5069540;28;1017;-58
2022/08/19 09:31:57;;;;;;;;;;;;;;;18.31;59.04;100298.50;5076407;28;1155;-57
2022/08/19 09:34:22;;;;;;;;;;;;;;;18.35;59.21;100291.31;5076319;28;1012;-58
2022/08/19 09:36:53;;;;;;;;;;;;;;;18.37;58.65;100293.75;5076134;28;1111;-58
2022/08/19 09:39:18;;;;;;;;;;;;;;;18.32;59.05;100300.16;5070417;28;841;-58
2022/08/19 09:41:44;;;;;;;;;;;;;;;18.27;58.96;100289.22;5069075;28;1203;-57
2022/08/19 09:44:11;;;;;;;;;;;;;;;18.21;59.18;100295.91;5062821;28;1980;-58
2022/08/19 09:46:37;;;;;;;;;;;;;;;18.22;58.79;100292.06;5076317;28;1040;-58
2022/08/19 09:49:05;;;;;;;;;;;;;;;18.31;58.72;100293.00;5076433;28;1096;-55
2022/08/19 09:51:31;;;;;;;;;;;;;;;18.24;59.01;100287.06;5065531;28;1198;-57
2022/08/19 09:53:58;;;;;;;;;;;;;;;18.28;59.06;100288.09;5062767;28;1329;-59
2022/08/19 09:56:24;;;;;;;;;;;;;;;18.27;59.22;100294.72;5064875;28;1224;-59
2022/08/19 09:58:49;;;;;;;;;;;;;;;18.31;59.19;100290.25;5075357;28;1024;-56
2022/08/19 10:01:16;;;;;;;;;;;;;;;18.36;59.14;100294.88;5073018;28;1096;-57
2022/08/19 10:03:41;;;;;;;;;;;;;;;18.35;59.07;100280.28;5071412;28;1909;-57
2022/08/19 10:06:08;;;;;;;;;;;;;;;18.39;59.57;100294.28;5068424;28;1068;-57
2022/08/19 10:08:35;;;;;;;;;;;;;;;18.40;59.32;100296.75;5064479;28;1131;-56
2022/08/19 10:11:01;;;;;;;;;;;;;;;18.43;59.24;100292.56;5069480;28;1203;-56
2022/08/19 10:13:28;;;;;;;;;;;;;;;18.42;59.17;100297.25;5066456;28;1560;-57
2022/08/19 10:15:54;;;;;;;;;;;;;;;18.48;58.94;100289.72;5060786;28;951;-57
2022/08/19 10:18:21;;;;;;;;;;;;;;;18.61;58.51;100288.19;5071850;28;1076;-55
2022/08/19 10:20:47;;;;;;;;;;;;;;;18.54;58.86;100293.25;5040372;28;1082;-57
2022/08/19 10:23:13;;;;;;;;;;;;;;;18.52;58.94;100303.72;5065741;28;2020;-58
2022/08/19 10:25:38;;;;;;;;;;;;;;;18.62;58.24;100298.06;5073272;28;1057;-57
2022/08/19 10:28:05;;;;;;;;;;;;;;;18.58;58.08;100297.00;5075002;28;954;-56
2022/08/19 10:30:31;;;;;;;;;;;;;;;18.60;57.77;100290.09;5072169;28;1005;-58
2022/08/19 10:32:56;;;;;;;;;;;;;;;18.78;57.40;100293.13;5065728;28;970;-57
2022/08/19 10:35:22;;;;;;;;;;;;;;;18.63;57.88;100296.94;5075911;28;1017;-58
2022/08/19 10:37:47;;;;;;;;;;;;;;;18.54;57.95;100287.75;5075771;28;953;-58
2022/08/19 10:40:12;;;;;;;;;;;;;;;18.55;58.21;100289.34;5072902;28;1052;-57
2022/08/19 10:42:38;;;;;;;;;;;;;;;18.49;58.04;100296.06;5060652;28;1988;-58
2022/08/19 10:45:05;;;;;;;;;;;;;;;18.50;58.40;100295.78;5063794;28;1001;-57
2022/08/19 10:47:31;;;;;;;;;;;;;;;18.55;58.70;100300.38;5067816;28;1115;-56
2022/08/19 10:52:42;;;;;;;;;;;;;;;18.46;58.36;100297.47;5074801;28;930;-58
2022/08/19 10:57:52;;;;;;;;;;;;;;;18.41;58.00;100300.28;5079883;28;1060;-56
2022/08/19 11:00:18;;;;;;;;;;;;;;;18.36;57.85;100294.88;5079556;28;970;-55
2022/08/19 11:02:44;;;;;;;;;;;;;;;18.40;57.72;100290.44;5074881;28;1905;-53
2022/08/19 11:05:10;;;;;;;;;;;;;;;18.36;57.97;100303.94;5069444;28;1156;-58
2022/08/19 11:07:37;;;;;;;;;;;;;;;18.37;57.97;100305.59;5065767;28;1367;-58
2022/08/19 11:10:03;;;;;;;;;;;;;;;18.40;57.62;100296.75;5062272;28;1261;-57
2022/08/19 11:12:29;;;;;;;;;;;;;;;18.36;57.74;100300.41;5063191;28;1079;-58
2022/08/19 11:14:54;;;;;;;;;;;;;;;18.35;57.84;100284.97;5070865;28;989;-58
2022/08/19 11:17:23;;;;;;;;;;;;;;;18.34;57.72;100286.94;5060169;28;1040;-58
2022/08/19 11:19:49;;;;;;;;;;;;;;;18.39;57.71;100289.59;5069530;28;998;-60
2022/08/19 11:22:14;;;;;;;;;;;;;;;18.39;57.73;100286.84;5075266;28;1972;-60
2022/08/19 11:24:40;;;;;;;;;;;;;;;18.38;57.69;100279.69;5078540;28;1163;-59
2022/08/19 11:27:07;;;;;;;;;;;;;;;18.42;57.38;100277.97;5076677;28;1040;-60
2022/08/19 11:29:34;;;;;;;;;;;;;;;18.43;57.47;100279.63;5071937;28;1207;-58
2022/08/19 11:32:01;;;;;;;;;;;;;;;18.41;57.39;100297.53;5063262;28;1239;-58
2022/08/19 11:34:28;;;;;;;;;;;;;;;18.43;57.08;100285.13;5066727;28;1309;-60
2022/08/19 11:36:54;;;;;;;;;;;;;;;18.45;56.99;100279.31;5063001;28;1124;-58
2022/08/19 11:39:20;;;;;;;;;;;;;;;18.44;57.00;100286.78;5047822;28;1156;-57
2022/08/19 11:41:45;;;;;;;;;;;;;;;18.40;57.04;100301.44;5066559;28;966;-57
2022/08/19 11:44:13;;;;;;;;;;;;;;;18.31;57.63;100301.25;5065322;28;2048;-57
2022/08/19 11:46:39;;;;;;;;;;;;;;;18.35;57.06;100280.28;5070859;28;830;-57
2022/08/19 11:49:04;;;;;;;;;;;;;;;18.33;57.31;100282.53;5072326;28;1032;-59
2022/08/19 11:51:30;;;;;;;;;;;;;;;18.32;57.31;100280.09;5077489;28;1175;-56
2022/08/19 11:53:56;;;;;;;;;;;;;;;18.25;57.29;100286.75;5072121;28;989;-56
2022/08/19 11:56:22;;;;;;;;;;;;;;;18.26;57.42;100274.63;5065132;28;1167;-59
2022/08/19 11:58:47;;;;;;;;;;;;;;;18.27;57.24;100280.94;5071628;28;1080;-58
2022/08/19 12:01:15;;;;;;;;;;;;;;;18.25;57.20;100278.50;5065176;28;1279;-59
2022/08/19 12:03:41;;;;;;;;;;;;;;;18.21;57.26;100284.91;5065008;28;1889;-58
2022/08/19 12:06:07;;;;;;;;;;;;;;;18.24;57.17;100281.56;5062971;28;1053;-59
2022/08/19 12:08:33;;;;;;;;;;;;;;;18.20;57.02;100286.00;5066209;28;1223;-59
2022/08/19 12:11:00;;;;;;;;;;;;;;;18.15;57.20;100288.84;5060892;28;1092;-59
2022/08/19 12:13:27;;;;;;;;;;;;;;;18.16;56.92;100288.56;5062488;28;1191;-60
2022/08/19 12:15:53;;;;;;;;;;;;;;;18.11;56.94;100283.91;5070471;28;1207;-56
2022/08/19 12:18:19;;;;;;;;;;;;;;;18.08;57.32;100279.00;5066950;28;1365;-57
2022/08/19 12:20:45;;;;;;;;;;;;;;;18.17;57.06;100283.84;5049860;28;1149;-57
2022/08/19 12:23:11;;;;;;;;;;;;;;;18.13;57.30;100276.19;5061978;28;1898;-56
2022/08/19 12:25:36;;;;;;;;;;;;;;;18.11;57.17;100288.63;5074538;28;1042;-57
2022/08/19 12:28:02;;;;;;;;;;;;;;;18.09;57.07;100280.66;5072319;28;918;-56
2022/08/19 12:30:27;;;;;;;;;;;;;;;18.06;57.05;100286.75;5060025;28;1185;-57
2022/08/19 12:32:53;;;;;;;;;;;;;;;18.08;57.32;100295.53;5065542;28;1098;-58
2022/08/19 12:35:19;;;;;;;;;;;;;;;18.07;57.42;100291.13;5076517;28;1159;-58
2022/08/19 12:37:45;;;;;;;;;;;;;;;18.06;57.15;100283.16;5065262;28;1084;-57
2022/08/19 12:40:14;;;;;;;;;;;;;;;18.04;57.21;100280.72;5065353;28;1223;-53
2022/08/19 12:42:42;;;;;;;;;;;;;;;18.05;57.12;100293.38;5067267;28;1902;-52
2022/08/19 12:45:11;;;;;;;;;;;;;;;18.08;57.21;100301.03;5065484;28;1346;-55
2022/08/19 12:47:36;;;;;;;;;;;;;;;18.08;56.97;100290.00;5066885;28;1211;-56
2022/08/19 12:50:02;;;;;;;;;;;;;;;18.13;56.62;100297.38;5065446;28;1277;-56
2022/08/19 12:52:28;;;;;;;;;;;;;;;18.00;57.07;100289.88;5065245;28;1243;-56
2022/08/19 12:54:54;;;;;;;;;;;;;;;18.10;56.88;100293.31;5066020;28;1329;-54
2022/08/19 12:57:19;;;;;;;;;;;;;;;18.03;57.07;100290.06;5064773;28;1214;-56
2022/08/19 12:59:45;;;;;;;;;;;;;;;18.12;56.88;100288.31;5064453;28;1222;-52
2022/08/19 13:02:10;;;;;;;;;;;;;;;18.04;57.22;100294.47;5066363;28;1183;-55
2022/08/19 13:04:40;;;;;;;;;;;;;;;18.01;56.97;100292.31;5066659;28;1918;-48